sensor_id;sensor_type;location;lat;lon;timestamp;P1;durP1;ratioP1;P2;durP2;ratioP2
4911;SDS011;2471;47.056;8.350;2023-10-09T00:01:05;13.23;;;5.20;;
4911;SDS011;2471;47.056;8.350;2023-10-09T00:03:41;21.53;;;4.63;;
4911;SDS011;2471;47.056;8.350;2023-10-09T00:06:08;13.40;;;4.93;;
4911;SDS011;2471;47.056;8.350;2023-10-09T00:08:38;17.60;;;4.30;;
4911;SDS011;2471;47.056;8.350;2023-10-09T00:11:09;16.07;;;4.30;;
4911;SDS011;2471;47.056;8.350;2023-10-09T00:13:45;11.70;;;4.30;;
4911;SDS011;2471;47.056;8.350;2023-10-09T00:16:14;14.67;;;4.50;;
4911;SDS011;2471;47.056;8.350;2023-10-09T00:18:48;15.10;;;4.77;;
4911;SDS011;2471;47.056;8.350;2023-10-09T00:21:14;10.83;;;4.17;;
4911;SDS011;2471;47.056;8.350;2023-10-09T00:23:41;18.33;;;4.53;;
4911;SDS011;2471;47.056;8.350;2023-10-09T00:26:07;19.60;;;5.30;;
4911;SDS011;2471;47.056;8.350;2023-10-09T00:28:37;14.03;;;4.70;;
4911;SDS011;2471;47.056;8.350;2023-10-09T00:31:06;14.43;;;3.60;;
4911;SDS011;2471;47.056;8.350;2023-10-09T00:33:33;18.90;;;4.80;;
4911;SDS011;2471;47.056;8.350;2023-10-09T00:36:03;23.60;;;4.63;;
4911;SDS011;2471;47.056;8.350;2023-10-09T00:38:39;20.63;;;5.70;;
4911;SDS011;2471;47.056;8.350;2023-10-09T00:41:05;15.97;;;4.10;;
4911;SDS011;2471;47.056;8.350;2023-10-09T00:43:33;9.43;;;4.23;;
4911;SDS011;2471;47.056;8.350;2023-10-09T00:46:01;28.03;;;5.83;;
4911;SDS011;2471;47.056;8.350;2023-10-09T00:48:49;12.33;;;4.07;;
4911;SDS011;2471;47.056;8.350;2023-10-09T00:51:15;20.10;;;4.63;;
4911;SDS011;2471;47.056;8.350;2023-10-09T00:53:47;22.90;;;4.97;;
4911;SDS011;2471;47.056;8.350;2023-10-09T00:56:16;24.17;;;5.30;;
4911;SDS011;2471;47.056;8.350;2023-10-09T00:59:00;13.20;;;4.83;;
4911;SDS011;2471;47.056;8.350;2023-10-09T01:01:39;12.00;;;4.40;;
4911;SDS011;2471;47.056;8.350;2023-10-09T01:04:06;11.30;;;4.47;;
4911;SDS011;2471;47.056;8.350;2023-10-09T01:06:37;15.23;;;3.80;;
4911;SDS011;2471;47.056;8.350;2023-10-09T01:09:09;23.20;;;4.67;;
4911;SDS011;2471;47.056;8.350;2023-10-09T01:11:35;11.37;;;4.30;;
4911;SDS011;2471;47.056;8.350;2023-10-09T01:14:24;10.10;;;5.37;;
4911;SDS011;2471;47.056;8.350;2023-10-09T01:16:50;8.50;;;4.53;;
4911;SDS011;2471;47.056;8.350;2023-10-09T01:19:19;16.50;;;4.77;;
4911;SDS011;2471;47.056;8.350;2023-10-09T01:21:49;13.50;;;4.27;;
4911;SDS011;2471;47.056;8.350;2023-10-09T01:24:15;14.57;;;4.80;;
4911;SDS011;2471;47.056;8.350;2023-10-09T01:26:42;12.47;;;4.87;;
4911;SDS011;2471;47.056;8.350;2023-10-09T01:29:20;17.77;;;4.40;;
4911;SDS011;2471;47.056;8.350;2023-10-09T01:31:48;10.90;;;3.87;;
4911;SDS011;2471;47.056;8.350;2023-10-09T01:34:19;11.17;;;4.30;;
4911;SDS011;2471;47.056;8.350;2023-10-09T01:36:49;11.90;;;4.43;;
4911;SDS011;2471;47.056;8.350;2023-10-09T01:39:15;21.07;;;5.07;;
4911;SDS011;2471;47.056;8.350;2023-10-09T01:41:55;21.13;;;4.87;;
4911;SDS011;2471;47.056;8.350;2023-10-09T01:44:25;22.97;;;4.30;;
4911;SDS011;2471;47.056;8.350;2023-10-09T01:46:53;12.37;;;3.87;;
4911;SDS011;2471;47.056;8.350;2023-10-09T01:49:21;18.70;;;4.33;;
4911;SDS011;2471;47.056;8.350;2023-10-09T01:51:55;12.77;;;4.57;;
4911;SDS011;2471;47.056;8.350;2023-10-09T01:54:23;23.17;;;4.40;;
4911;SDS011;2471;47.056;8.350;2023-10-09T01:57:01;13.97;;;4.07;;
4911;SDS011;2471;47.056;8.350;2023-10-09T01:59:31;21.03;;;4.67;;
4911;SDS011;2471;47.056;8.350;2023-10-09T02:01:57;9.33;;;4.17;;
4911;SDS011;2471;47.056;8.350;2023-10-09T02:04:37;12.97;;;4.03;;
4911;SDS011;2471;47.056;8.350;2023-10-09T02:07:05;22.77;;;4.37;;
4911;SDS011;2471;47.056;8.350;2023-10-09T02:09:33;10.63;;;4.27;;
4911;SDS011;2471;47.056;8.350;2023-10-09T02:12:00;12.60;;;3.90;;
4911;SDS011;2471;47.056;8.350;2023-10-09T02:14:26;19.13;;;4.87;;
4911;SDS011;2471;47.056;8.350;2023-10-09T02:16:52;19.63;;;4.97;;
4911;SDS011;2471;47.056;8.350;2023-10-09T02:19:30;15.13;;;4.20;;
4911;SDS011;2471;47.056;8.350;2023-10-09T02:21:59;11.43;;;4.97;;
4911;SDS011;2471;47.056;8.350;2023-10-09T02:24:27;22.47;;;3.90;;
4911;SDS011;2471;47.056;8.350;2023-10-09T02:27:13;12.03;;;4.20;;
4911;SDS011;2471;47.056;8.350;2023-10-09T02:29:59;18.73;;;4.43;;
4911;SDS011;2471;47.056;8.350;2023-10-09T02:32:33;13.60;;;4.40;;
4911;SDS011;2471;47.056;8.350;2023-10-09T02:35:00;14.53;;;5.13;;
4911;SDS011;2471;47.056;8.350;2023-10-09T02:37:35;16.30;;;4.67;;
4911;SDS011;2471;47.056;8.350;2023-10-09T02:40:03;15.53;;;4.83;;
4911;SDS011;2471;47.056;8.350;2023-10-09T02:42:33;18.83;;;5.60;;
4911;SDS011;2471;47.056;8.350;2023-10-09T02:44:59;17.80;;;4.87;;
4911;SDS011;2471;47.056;8.350;2023-10-09T02:47:26;13.10;;;4.47;;
4911;SDS011;2471;47.056;8.350;2023-10-09T02:50:02;9.37;;;3.83;;
4911;SDS011;2471;47.056;8.350;2023-10-09T02:52:44;12.03;;;5.30;;
4911;SDS011;2471;47.056;8.350;2023-10-09T02:55:12;12.63;;;4.33;;
4911;SDS011;2471;47.056;8.350;2023-10-09T02:57:56;21.90;;;4.60;;
4911;SDS011;2471;47.056;8.350;2023-10-09T03:00:33;11.10;;;4.03;;
4911;SDS011;2471;47.056;8.350;2023-10-09T03:03:01;14.77;;;4.77;;
4911;SDS011;2471;47.056;8.350;2023-10-09T03:05:29;19.20;;;4.00;;
4911;SDS011;2471;47.056;8.350;2023-10-09T03:07:55;9.23;;;4.30;;
4911;SDS011;2471;47.056;8.350;2023-10-09T03:10:22;19.40;;;4.60;;
4911;SDS011;2471;47.056;8.350;2023-10-09T03:12:48;13.50;;;4.00;;
4911;SDS011;2471;47.056;8.350;2023-10-09T03:15:18;12.67;;;3.90;;
4911;SDS011;2471;47.056;8.350;2023-10-09T03:17:45;13.40;;;4.27;;
4911;SDS011;2471;47.056;8.350;2023-10-09T03:20:12;24.30;;;4.57;;
4911;SDS011;2471;47.056;8.350;2023-10-09T03:22:39;19.80;;;4.10;;
4911;SDS011;2471;47.056;8.350;2023-10-09T03:25:06;11.43;;;4.33;;
4911;SDS011;2471;47.056;8.350;2023-10-09T03:27:42;13.90;;;3.90;;
4911;SDS011;2471;47.056;8.350;2023-10-09T03:30:10;16.80;;;4.57;;
4911;SDS011;2471;47.056;8.350;2023-10-09T03:32:41;22.80;;;4.70;;
4911;SDS011;2471;47.056;8.350;2023-10-09T03:35:07;12.67;;;4.87;;
4911;SDS011;2471;47.056;8.350;2023-10-09T03:37:36;17.80;;;5.03;;
4911;SDS011;2471;47.056;8.350;2023-10-09T03:40:04;11.83;;;4.70;;
4911;SDS011;2471;47.056;8.350;2023-10-09T03:42:32;15.80;;;4.57;;
4911;SDS011;2471;47.056;8.350;2023-10-09T03:45:01;11.40;;;4.60;;
4911;SDS011;2471;47.056;8.350;2023-10-09T03:47:37;13.30;;;4.50;;
4911;SDS011;2471;47.056;8.350;2023-10-09T03:50:07;15.07;;;4.70;;
4911;SDS011;2471;47.056;8.350;2023-10-09T03:52:48;9.30;;;5.63;;
4911;SDS011;2471;47.056;8.350;2023-10-09T03:55:15;13.50;;;5.03;;
4911;SDS011;2471;47.056;8.350;2023-10-09T03:57:41;14.93;;;5.80;;
4911;SDS011;2471;47.056;8.350;2023-10-09T04:00:10;17.07;;;4.30;;
4911;SDS011;2471;47.056;8.350;2023-10-09T04:02:52;10.00;;;4.83;;
4911;SDS011;2471;47.056;8.350;2023-10-09T04:05:18;20.07;;;4.00;;
4911;SDS011;2471;47.056;8.350;2023-10-09T04:07:45;9.63;;;4.20;;
4911;SDS011;2471;47.056;8.350;2023-10-09T04:10:11;16.20;;;3.50;;
4911;SDS011;2471;47.056;8.350;2023-10-09T04:13:12;12.00;;;4.77;;
4911;SDS011;2471;47.056;8.350;2023-10-09T04:15:43;19.30;;;5.57;;
4911;SDS011;2471;47.056;8.350;2023-10-09T04:18:09;21.33;;;6.23;;
4911;SDS011;2471;47.056;8.350;2023-10-09T04:20:44;15.93;;;5.83;;
4911;SDS011;2471;47.056;8.350;2023-10-09T04:23:36;13.77;;;4.70;;
4911;SDS011;2471;47.056;8.350;2023-10-09T04:26:22;12.80;;;4.80;;
4911;SDS011;2471;47.056;8.350;2023-10-09T04:28:50;20.87;;;4.30;;
4911;SDS011;2471;47.056;8.350;2023-10-09T04:31:18;7.90;;;4.07;;
4911;SDS011;2471;47.056;8.350;2023-10-09T04:33:46;16.40;;;4.70;;
4911;SDS011;2471;47.056;8.350;2023-10-09T04:36:32;13.27;;;4.20;;
4911;SDS011;2471;47.056;8.350;2023-10-09T04:39:11;13.27;;;4.50;;
4911;SDS011;2471;47.056;8.350;2023-10-09T04:41:37;17.67;;;5.03;;
4911;SDS011;2471;47.056;8.350;2023-10-09T04:44:06;17.17;;;4.90;;
4911;SDS011;2471;47.056;8.350;2023-10-09T04:46:41;12.37;;;4.43;;
4911;SDS011;2471;47.056;8.350;2023-10-09T04:49:10;21.77;;;5.13;;
4911;SDS011;2471;47.056;8.350;2023-10-09T04:51:53;17.13;;;4.80;;
4911;SDS011;2471;47.056;8.350;2023-10-09T04:54:29;16.17;;;5.37;;
4911;SDS011;2471;47.056;8.350;2023-10-09T04:57:04;14.47;;;6.83;;
4911;SDS011;2471;47.056;8.350;2023-10-09T04:59:45;28.17;;;6.73;;
4911;SDS011;2471;47.056;8.350;2023-10-09T05:02:13;11.10;;;5.27;;
4911;SDS011;2471;47.056;8.350;2023-10-09T05:04:44;16.90;;;5.70;;
4911;SDS011;2471;47.056;8.350;2023-10-09T05:07:12;21.27;;;6.17;;
4911;SDS011;2471;47.056;8.350;2023-10-09T05:09:48;17.97;;;4.80;;
4911;SDS011;2471;47.056;8.350;2023-10-09T05:12:21;12.60;;;5.10;;
4911;SDS011;2471;47.056;8.350;2023-10-09T05:14:51;26.63;;;8.40;;
4911;SDS011;2471;47.056;8.350;2023-10-09T05:17:38;16.03;;;5.50;;
4911;SDS011;2471;47.056;8.350;2023-10-09T05:20:05;16.83;;;4.67;;
4911;SDS011;2471;47.056;8.350;2023-10-09T05:22:50;17.73;;;6.13;;
4911;SDS011;2471;47.056;8.350;2023-10-09T05:25:25;12.47;;;5.93;;
4911;SDS011;2471;47.056;8.350;2023-10-09T05:28:09;25.93;;;6.00;;
4911;SDS011;2471;47.056;8.350;2023-10-09T05:30:56;27.33;;;5.87;;
4911;SDS011;2471;47.056;8.350;2023-10-09T05:33:36;16.53;;;5.43;;
4911;SDS011;2471;47.056;8.350;2023-10-09T05:36:05;10.43;;;5.23;;
4911;SDS011;2471;47.056;8.350;2023-10-09T05:38:56;19.70;;;5.37;;
4911;SDS011;2471;47.056;8.350;2023-10-09T05:41:43;16.80;;;5.90;;
4911;SDS011;2471;47.056;8.350;2023-10-09T05:44:24;12.40;;;5.27;;
4911;SDS011;2471;47.056;8.350;2023-10-09T05:47:09;13.90;;;5.83;;
4911;SDS011;2471;47.056;8.350;2023-10-09T05:49:56;23.33;;;6.60;;
4911;SDS011;2471;47.056;8.350;2023-10-09T05:52:34;11.30;;;6.40;;
4911;SDS011;2471;47.056;8.350;2023-10-09T05:55:03;16.90;;;5.87;;
4911;SDS011;2471;47.056;8.350;2023-10-09T05:57:45;22.93;;;6.37;;
4911;SDS011;2471;47.056;8.350;2023-10-09T06:00:24;12.83;;;5.93;;
4911;SDS011;2471;47.056;8.350;2023-10-09T06:03:09;18.30;;;5.90;;
4911;SDS011;2471;47.056;8.350;2023-10-09T06:05:44;19.17;;;6.37;;
4911;SDS011;2471;47.056;8.350;2023-10-09T06:08:23;17.07;;;5.70;;
4911;SDS011;2471;47.056;8.350;2023-10-09T06:10:55;11.63;;;5.87;;
4911;SDS011;2471;47.056;8.350;2023-10-09T06:13:34;16.20;;;6.17;;
4911;SDS011;2471;47.056;8.350;2023-10-09T06:16:03;22.17;;;6.97;;
4911;SDS011;2471;47.056;8.350;2023-10-09T06:18:45;16.83;;;5.10;;
4911;SDS011;2471;47.056;8.350;2023-10-09T06:21:19;17.67;;;5.70;;
4911;SDS011;2471;47.056;8.350;2023-10-09T06:24:05;12.30;;;6.13;;
4911;SDS011;2471;47.056;8.350;2023-10-09T06:26:39;14.40;;;6.30;;
4911;SDS011;2471;47.056;8.350;2023-10-09T06:29:29;15.10;;;5.37;;
4911;SDS011;2471;47.056;8.350;2023-10-09T06:32:13;11.73;;;6.07;;
4911;SDS011;2471;47.056;8.350;2023-10-09T06:34:58;20.10;;;6.33;;
4911;SDS011;2471;47.056;8.350;2023-10-09T06:37:44;9.60;;;5.93;;
4911;SDS011;2471;47.056;8.350;2023-10-09T06:40:28;14.10;;;5.47;;
4911;SDS011;2471;47.056;8.350;2023-10-09T06:43:03;19.33;;;7.63;;
4911;SDS011;2471;47.056;8.350;2023-10-09T06:45:40;9.93;;;5.10;;
4911;SDS011;2471;47.056;8.350;2023-10-09T06:48:10;14.73;;;5.67;;
4911;SDS011;2471;47.056;8.350;2023-10-09T06:51:09;14.07;;;6.10;;
4911;SDS011;2471;47.056;8.350;2023-10-09T06:54:05;21.80;;;5.63;;
4911;SDS011;2471;47.056;8.350;2023-10-09T06:56:40;12.40;;;5.53;;
4911;SDS011;2471;47.056;8.350;2023-10-09T06:59:18;14.97;;;5.50;;
4911;SDS011;2471;47.056;8.350;2023-10-09T07:01:49;17.40;;;5.93;;
4911;SDS011;2471;47.056;8.350;2023-10-09T07:04:34;11.90;;;5.43;;
4911;SDS011;2471;47.056;8.350;2023-10-09T07:07:00;13.37;;;5.70;;
4911;SDS011;2471;47.056;8.350;2023-10-09T07:09:32;16.00;;;6.47;;
4911;SDS011;2471;47.056;8.350;2023-10-09T07:12:07;13.60;;;4.77;;
4911;SDS011;2471;47.056;8.350;2023-10-09T07:14:51;12.40;;;4.93;;
4911;SDS011;2471;47.056;8.350;2023-10-09T07:17:26;14.37;;;5.63;;
4911;SDS011;2471;47.056;8.350;2023-10-09T07:19:58;16.77;;;6.57;;
4911;SDS011;2471;47.056;8.350;2023-10-09T07:22:38;18.43;;;5.60;;
4911;SDS011;2471;47.056;8.350;2023-10-09T07:25:05;12.43;;;5.07;;
4911;SDS011;2471;47.056;8.350;2023-10-09T07:27:40;9.67;;;4.97;;
4911;SDS011;2471;47.056;8.350;2023-10-09T07:30:12;12.17;;;5.20;;
4911;SDS011;2471;47.056;8.350;2023-10-09T07:32:58;12.03;;;5.27;;
4911;SDS011;2471;47.056;8.350;2023-10-09T07:35:37;17.13;;;5.47;;
4911;SDS011;2471;47.056;8.350;2023-10-09T07:38:14;15.80;;;4.87;;
4911;SDS011;2471;47.056;8.350;2023-10-09T07:40:44;12.37;;;4.80;;
4911;SDS011;2471;47.056;8.350;2023-10-09T07:43:23;10.50;;;5.17;;
4911;SDS011;2471;47.056;8.350;2023-10-09T07:46:16;14.70;;;4.63;;
4911;SDS011;2471;47.056;8.350;2023-10-09T07:48:59;27.03;;;5.10;;
4911;SDS011;2471;47.056;8.350;2023-10-09T07:51:25;10.60;;;4.30;;
4911;SDS011;2471;47.056;8.350;2023-10-09T07:53:58;12.20;;;4.73;;
4911;SDS011;2471;47.056;8.350;2023-10-09T07:56:37;20.93;;;5.20;;
4911;SDS011;2471;47.056;8.350;2023-10-09T07:59:06;7.00;;;3.90;;
4911;SDS011;2471;47.056;8.350;2023-10-09T08:01:42;13.73;;;4.63;;
4911;SDS011;2471;47.056;8.350;2023-10-09T08:04:20;13.37;;;4.30;;
4911;SDS011;2471;47.056;8.350;2023-10-09T08:07:02;14.53;;;4.80;;
4911;SDS011;2471;47.056;8.350;2023-10-09T08:09:32;10.57;;;4.53;;
4911;SDS011;2471;47.056;8.350;2023-10-09T08:12:11;20.03;;;5.27;;
4911;SDS011;2471;47.056;8.350;2023-10-09T08:15:00;13.27;;;4.10;;
4911;SDS011;2471;47.056;8.350;2023-10-09T08:17:45;21.43;;;6.03;;
4911;SDS011;2471;47.056;8.350;2023-10-09T08:20:30;16.40;;;5.00;;
4911;SDS011;2471;47.056;8.350;2023-10-09T08:23:15;17.17;;;5.30;;
4911;SDS011;2471;47.056;8.350;2023-10-09T08:26:03;18.45;;;4.72;;
4911;SDS011;2471;47.056;8.350;2023-10-09T08:28:37;14.80;;;5.73;;
4911;SDS011;2471;47.056;8.350;2023-10-09T08:31:17;22.23;;;5.37;;
4911;SDS011;2471;47.056;8.350;2023-10-09T08:34:02;15.87;;;5.10;;
4911;SDS011;2471;47.056;8.350;2023-10-09T08:36:29;15.40;;;4.83;;
4911;SDS011;2471;47.056;8.350;2023-10-09T08:39:01;12.90;;;4.47;;
4911;SDS011;2471;47.056;8.350;2023-10-09T08:41:40;17.40;;;5.43;;
4911;SDS011;2471;47.056;8.350;2023-10-09T08:44:06;16.93;;;5.50;;
4911;SDS011;2471;47.056;8.350;2023-10-09T08:46:32;19.20;;;5.57;;
4911;SDS011;2471;47.056;8.350;2023-10-09T08:49:02;14.10;;;5.37;;
4911;SDS011;2471;47.056;8.350;2023-10-09T08:51:35;17.43;;;4.80;;
4911;SDS011;2471;47.056;8.350;2023-10-09T08:54:01;14.37;;;5.07;;
4911;SDS011;2471;47.056;8.350;2023-10-09T08:56:29;27.77;;;5.40;;
4911;SDS011;2471;47.056;8.350;2023-10-09T08:58:56;21.40;;;4.77;;
4911;SDS011;2471;47.056;8.350;2023-10-09T09:01:23;16.37;;;4.90;;
4911;SDS011;2471;47.056;8.350;2023-10-09T09:03:50;16.30;;;5.23;;
4911;SDS011;2471;47.056;8.350;2023-10-09T09:06:17;20.20;;;5.10;;
4911;SDS011;2471;47.056;8.350;2023-10-09T09:08:44;24.33;;;5.80;;
4911;SDS011;2471;47.056;8.350;2023-10-09T09:11:14;18.40;;;5.50;;
4911;SDS011;2471;47.056;8.350;2023-10-09T09:13:48;17.93;;;5.60;;
4911;SDS011;2471;47.056;8.350;2023-10-09T09:18:53;14.40;;;5.00;;
4911;SDS011;2471;47.056;8.350;2023-10-09T09:21:25;15.83;;;4.90;;
4911;SDS011;2471;47.056;8.350;2023-10-09T09:23:56;16.93;;;5.23;;
4911;SDS011;2471;47.056;8.350;2023-10-09T09:26:33;19.30;;;5.63;;
4911;SDS011;2471;47.056;8.350;2023-10-09T09:29:05;13.27;;;4.37;;
4911;SDS011;2471;47.056;8.350;2023-10-09T09:31:31;23.70;;;4.70;;
4911;SDS011;2471;47.056;8.350;2023-10-09T09:34:03;20.40;;;4.83;;
4911;SDS011;2471;47.056;8.350;2023-10-09T09:36:33;20.60;;;5.27;;
4911;SDS011;2471;47.056;8.350;2023-10-09T09:38:59;16.07;;;4.50;;
4911;SDS011;2471;47.056;8.350;2023-10-09T09:41:26;18.27;;;4.93;;
4911;SDS011;2471;47.056;8.350;2023-10-09T09:43:53;10.27;;;4.10;;
4911;SDS011;2471;47.056;8.350;2023-10-09T09:46:25;19.70;;;4.40;;
4911;SDS011;2471;47.056;8.350;2023-10-09T09:49:01;21.30;;;5.50;;
4911;SDS011;2471;47.056;8.350;2023-10-09T09:51:31;21.73;;;5.90;;
4911;SDS011;2471;47.056;8.350;2023-10-09T09:53:57;21.67;;;5.90;;
4911;SDS011;2471;47.056;8.350;2023-10-09T09:56:26;18.63;;;5.70;;
4911;SDS011;2471;47.056;8.350;2023-10-09T09:58:55;14.53;;;5.03;;
4911;SDS011;2471;47.056;8.350;2023-10-09T10:01:24;14.23;;;5.50;;
4911;SDS011;2471;47.056;8.350;2023-10-09T10:06:49;20.23;;;5.70;;
4911;SDS011;2471;47.056;8.350;2023-10-09T10:12:07;16.83;;;6.60;;
4911;SDS011;2471;47.056;8.350;2023-10-09T10:14:52;22.10;;;5.80;;
4911;SDS011;2471;47.056;8.350;2023-10-09T10:17:22;17.00;;;5.20;;
4911;SDS011;2471;47.056;8.350;2023-10-09T10:22:39;38.77;;;8.97;;
4911;SDS011;2471;47.056;8.350;2023-10-09T10:25:27;31.80;;;9.80;;
4911;SDS011;2471;47.056;8.350;2023-10-09T10:30:53;29.60;;;8.27;;
4911;SDS011;2471;47.056;8.350;2023-10-09T10:33:19;29.17;;;6.90;;
4911;SDS011;2471;47.056;8.350;2023-10-09T10:35:48;28.13;;;8.10;;
4911;SDS011;2471;47.056;8.350;2023-10-09T10:38:24;28.73;;;6.00;;
4911;SDS011;2471;47.056;8.350;2023-10-09T10:40:50;23.87;;;6.50;;
4911;SDS011;2471;47.056;8.350;2023-10-09T10:43:23;19.23;;;7.80;;
4911;SDS011;2471;47.056;8.350;2023-10-09T10:46:08;22.00;;;6.47;;
4911;SDS011;2471;47.056;8.350;2023-10-09T10:48:52;25.90;;;6.40;;
4911;SDS011;2471;47.056;8.350;2023-10-09T10:51:27;30.00;;;7.90;;
4911;SDS011;2471;47.056;8.350;2023-10-09T10:54:02;29.10;;;7.07;;
4911;SDS011;2471;47.056;8.350;2023-10-09T10:56:47;17.70;;;6.77;;
4911;SDS011;2471;47.056;8.350;2023-10-09T10:59:14;28.53;;;6.17;;
4911;SDS011;2471;47.056;8.350;2023-10-09T11:01:47;26.30;;;7.43;;
4911;SDS011;2471;47.056;8.350;2023-10-09T11:04:39;20.80;;;6.70;;
4911;SDS011;2471;47.056;8.350;2023-10-09T11:07:08;28.87;;;7.37;;
4911;SDS011;2471;47.056;8.350;2023-10-09T11:12:26;27.73;;;6.50;;
4911;SDS011;2471;47.056;8.350;2023-10-09T11:15:04;44.23;;;10.73;;
4911;SDS011;2471;47.056;8.350;2023-10-09T11:18:05;33.83;;;8.90;;
4911;SDS011;2471;47.056;8.350;2023-10-09T11:20:41;42.73;;;9.60;;
4911;SDS011;2471;47.056;8.350;2023-10-09T11:23:21;28.37;;;8.53;;
4911;SDS011;2471;47.056;8.350;2023-10-09T11:26:14;28.80;;;8.43;;
4911;SDS011;2471;47.056;8.350;2023-10-09T11:32:01;33.20;;;8.20;;
4911;SDS011;2471;47.056;8.350;2023-10-09T11:34:28;31.90;;;6.83;;
4911;SDS011;2471;47.056;8.350;2023-10-09T11:36:56;30.13;;;7.40;;
4911;SDS011;2471;47.056;8.350;2023-10-09T11:39:24;42.07;;;7.27;;
4911;SDS011;2471;47.056;8.350;2023-10-09T11:42:05;31.07;;;7.10;;
4911;SDS011;2471;47.056;8.350;2023-10-09T11:44:35;18.50;;;6.00;;
4911;SDS011;2471;47.056;8.350;2023-10-09T11:47:04;21.33;;;7.47;;
4911;SDS011;2471;47.056;8.350;2023-10-09T11:49:52;22.93;;;6.20;;
4911;SDS011;2471;47.056;8.350;2023-10-09T11:52:31;28.43;;;5.37;;
4911;SDS011;2471;47.056;8.350;2023-10-09T11:55:00;27.93;;;5.77;;
4911;SDS011;2471;47.056;8.350;2023-10-09T11:57:28;24.20;;;5.57;;
4911;SDS011;2471;47.056;8.350;2023-10-09T11:59:58;28.80;;;6.30;;
4911;SDS011;2471;47.056;8.350;2023-10-09T12:02:25;12.60;;;5.37;;
4911;SDS011;2471;47.056;8.350;2023-10-09T12:04:51;24.77;;;8.20;;
4911;SDS011;2471;47.056;8.350;2023-10-09T12:07:20;21.67;;;5.43;;
4911;SDS011;2471;47.056;8.350;2023-10-09T12:09:47;29.17;;;7.07;;
4911;SDS011;2471;47.056;8.350;2023-10-09T12:12:13;30.60;;;7.93;;
4911;SDS011;2471;47.056;8.350;2023-10-09T12:14:39;19.57;;;6.43;;
4911;SDS011;2471;47.056;8.350;2023-10-09T12:17:06;18.23;;;6.30;;
4911;SDS011;2471;47.056;8.350;2023-10-09T12:19:36;25.27;;;5.83;;
4911;SDS011;2471;47.056;8.350;2023-10-09T12:22:03;20.80;;;6.57;;
4911;SDS011;2471;47.056;8.350;2023-10-09T12:24:30;39.87;;;6.03;;
4911;SDS011;2471;47.056;8.350;2023-10-09T12:26:58;20.20;;;5.60;;
4911;SDS011;2471;47.056;8.350;2023-10-09T12:29:24;20.77;;;5.57;;
4911;SDS011;2471;47.056;8.350;2023-10-09T12:31:54;22.93;;;5.00;;
4911;SDS011;2471;47.056;8.350;2023-10-09T12:34:27;18.70;;;5.80;;
4911;SDS011;2471;47.056;8.350;2023-10-09T12:36:53;17.83;;;6.27;;
4911;SDS011;2471;47.056;8.350;2023-10-09T12:39:20;21.53;;;5.63;;
4911;SDS011;2471;47.056;8.350;2023-10-09T12:41:46;30.13;;;5.70;;
4911;SDS011;2471;47.056;8.350;2023-10-09T12:44:13;14.30;;;4.37;;
4911;SDS011;2471;47.056;8.350;2023-10-09T12:46:45;20.73;;;4.67;;
4911;SDS011;2471;47.056;8.350;2023-10-09T12:49:21;17.13;;;4.83;;
4911;SDS011;2471;47.056;8.350;2023-10-09T12:51:51;19.93;;;4.77;;
4911;SDS011;2471;47.056;8.350;2023-10-09T12:54:17;19.27;;;5.00;;
4911;SDS011;2471;47.056;8.350;2023-10-09T12:56:49;16.60;;;4.50;;
4911;SDS011;2471;47.056;8.350;2023-10-09T12:59:15;20.60;;;5.00;;
4911;SDS011;2471;47.056;8.350;2023-10-09T13:01:41;26.07;;;4.90;;
4911;SDS011;2471;47.056;8.350;2023-10-09T13:04:08;26.60;;;5.40;;
4911;SDS011;2471;47.056;8.350;2023-10-09T13:06:36;22.20;;;6.17;;
4911;SDS011;2471;47.056;8.350;2023-10-09T13:09:08;18.57;;;5.50;;
4911;SDS011;2471;47.056;8.350;2023-10-09T13:11:34;20.93;;;6.00;;
4911;SDS011;2471;47.056;8.350;2023-10-09T13:14:02;19.77;;;5.70;;
4911;SDS011;2471;47.056;8.350;2023-10-09T13:16:41;22.43;;;6.90;;
4911;SDS011;2471;47.056;8.350;2023-10-09T13:19:07;21.87;;;5.50;;
4911;SDS011;2471;47.056;8.350;2023-10-09T13:21:36;24.53;;;5.07;;
4911;SDS011;2471;47.056;8.350;2023-10-09T13:24:04;23.70;;;5.57;;
4911;SDS011;2471;47.056;8.350;2023-10-09T13:26:30;21.07;;;5.30;;
4911;SDS011;2471;47.056;8.350;2023-10-09T13:28:58;21.07;;;5.00;;
4911;SDS011;2471;47.056;8.350;2023-10-09T13:31:25;20.23;;;5.47;;
4911;SDS011;2471;47.056;8.350;2023-10-09T13:33:54;20.77;;;5.47;;
4911;SDS011;2471;47.056;8.350;2023-10-09T13:36:23;16.67;;;5.77;;
4911;SDS011;2471;47.056;8.350;2023-10-09T13:38:58;17.67;;;5.67;;
4911;SDS011;2471;47.056;8.350;2023-10-09T13:41:45;30.93;;;5.10;;
4911;SDS011;2471;47.056;8.350;2023-10-09T13:44:11;19.37;;;5.87;;
4911;SDS011;2471;47.056;8.350;2023-10-09T13:46:37;19.60;;;5.17;;
4911;SDS011;2471;47.056;8.350;2023-10-09T13:49:06;27.03;;;5.30;;
4911;SDS011;2471;47.056;8.350;2023-10-09T13:51:37;20.53;;;4.63;;
4911;SDS011;2471;47.056;8.350;2023-10-09T13:54:08;20.30;;;5.50;;
4911;SDS011;2471;47.056;8.350;2023-10-09T13:56:34;20.30;;;4.23;;
4911;SDS011;2471;47.056;8.350;2023-10-09T13:59:04;20.47;;;4.90;;
4911;SDS011;2471;47.056;8.350;2023-10-09T14:01:39;13.43;;;4.83;;
4911;SDS011;2471;47.056;8.350;2023-10-09T14:04:11;21.77;;;5.30;;
4911;SDS011;2471;47.056;8.350;2023-10-09T14:06:43;19.07;;;4.60;;
4911;SDS011;2471;47.056;8.350;2023-10-09T14:09:09;30.77;;;6.20;;
4911;SDS011;2471;47.056;8.350;2023-10-09T14:11:36;23.07;;;5.50;;
4911;SDS011;2471;47.056;8.350;2023-10-09T14:14:09;31.10;;;5.73;;
4911;SDS011;2471;47.056;8.350;2023-10-09T14:16:36;17.83;;;5.10;;
4911;SDS011;2471;47.056;8.350;2023-10-09T14:19:07;21.23;;;6.20;;
4911;SDS011;2471;47.056;8.350;2023-10-09T14:21:38;19.97;;;5.70;;
4911;SDS011;2471;47.056;8.350;2023-10-09T14:24:05;24.97;;;4.87;;
4911;SDS011;2471;47.056;8.350;2023-10-09T14:26:40;26.33;;;5.30;;
4911;SDS011;2471;47.056;8.350;2023-10-09T14:29:06;21.13;;;5.47;;
4911;SDS011;2471;47.056;8.350;2023-10-09T14:31:32;19.87;;;4.83;;
4911;SDS011;2471;47.056;8.350;2023-10-09T14:34:04;20.73;;;5.00;;
4911;SDS011;2471;47.056;8.350;2023-10-09T14:36:34;35.57;;;5.30;;
4911;SDS011;2471;47.056;8.350;2023-10-09T14:39:00;23.67;;;5.30;;
4911;SDS011;2471;47.056;8.350;2023-10-09T14:41:27;19.10;;;5.43;;
4911;SDS011;2471;47.056;8.350;2023-10-09T14:43:58;18.53;;;5.57;;
4911;SDS011;2471;47.056;8.350;2023-10-09T14:46:24;20.73;;;4.30;;
4911;SDS011;2471;47.056;8.350;2023-10-09T14:48:51;16.70;;;5.80;;
4911;SDS011;2471;47.056;8.350;2023-10-09T14:51:21;16.20;;;5.10;;
4911;SDS011;2471;47.056;8.350;2023-10-09T14:53:55;15.60;;;5.00;;
4911;SDS011;2471;47.056;8.350;2023-10-09T14:56:27;11.33;;;4.23;;
4911;SDS011;2471;47.056;8.350;2023-10-09T14:58:58;18.53;;;5.57;;
4911;SDS011;2471;47.056;8.350;2023-10-09T15:01:25;18.80;;;4.80;;
4911;SDS011;2471;47.056;8.350;2023-10-09T15:03:53;17.87;;;4.47;;
4911;SDS011;2471;47.056;8.350;2023-10-09T15:06:22;24.27;;;4.93;;
4911;SDS011;2471;47.056;8.350;2023-10-09T15:08:48;19.27;;;4.37;;
4911;SDS011;2471;47.056;8.350;2023-10-09T15:11:14;23.07;;;5.27;;
4911;SDS011;2471;47.056;8.350;2023-10-09T15:13:40;18.27;;;5.80;;
4911;SDS011;2471;47.056;8.350;2023-10-09T15:16:06;22.00;;;4.53;;
4911;SDS011;2471;47.056;8.350;2023-10-09T15:18:32;21.60;;;4.80;;
4911;SDS011;2471;47.056;8.350;2023-10-09T15:21:00;28.00;;;4.60;;
4911;SDS011;2471;47.056;8.350;2023-10-09T15:23:26;14.83;;;3.60;;
4911;SDS011;2471;47.056;8.350;2023-10-09T15:25:52;16.63;;;4.87;;
4911;SDS011;2471;47.056;8.350;2023-10-09T15:28:19;16.00;;;5.30;;
4911;SDS011;2471;47.056;8.350;2023-10-09T15:30:45;31.77;;;5.70;;
4911;SDS011;2471;47.056;8.350;2023-10-09T15:33:13;24.70;;;6.13;;
4911;SDS011;2471;47.056;8.350;2023-10-09T15:35:41;21.00;;;5.70;;
4911;SDS011;2471;47.056;8.350;2023-10-09T15:38:07;19.50;;;5.60;;
4911;SDS011;2471;47.056;8.350;2023-10-09T15:40:37;13.83;;;5.37;;
4911;SDS011;2471;47.056;8.350;2023-10-09T15:43:04;20.37;;;5.70;;
4911;SDS011;2471;47.056;8.350;2023-10-09T15:45:30;22.83;;;5.30;;
4911;SDS011;2471;47.056;8.350;2023-10-09T15:47:56;16.43;;;5.30;;
4911;SDS011;2471;47.056;8.350;2023-10-09T15:50:24;13.33;;;4.43;;
4911;SDS011;2471;47.056;8.350;2023-10-09T15:52:54;13.30;;;4.67;;
4911;SDS011;2471;47.056;8.350;2023-10-09T15:55:21;20.07;;;4.63;;